sensor_id;sensor_type;location;lat;lon;timestamp;pressure;altitude;pressure_sealevel;temperature;humidity
31681;BME280;18281;51.364;9.566;2023-03-15T00:00:53;99438.63;;;0.13;100.00
31681;BME280;18281;51.364;9.566;2023-03-15T00:03:19;99442.06;;;0.13;100.00
31681;BME280;18281;51.364;9.566;2023-03-15T00:05:47;99449.03;;;0.10;100.00
31681;BME280;18281;51.364;9.566;2023-03-15T00:08:13;99447.34;;;0.07;100.00
31681;BME280;18281;51.364;9.566;2023-03-15T00:10:43;99452.56;;;0.06;100.00
31681;BME280;18281;51.364;9.566;2023-03-15T00:13:10;99455.28;;;-0.02;100.00
31681;BME280;18281;51.364;9.566;2023-03-15T00:15:40;99465.59;;;-0.02;100.00
31681;BME280;18281;51.364;9.566;2023-03-15T00:18:08;99469.97;;;-0.04;100.00
31681;BME280;18281;51.364;9.566;2023-03-15T00:20:36;99475.13;;;-0.06;100.00
31681;BME280;18281;51.364;9.566;2023-03-15T00:23:01;99471.75;;;-0.08;100.00
31681;BME280;18281;51.364;9.566;2023-03-15T00:25:26;99470.13;;;-0.12;100.00
31681;BME280;18281;51.364;9.566;2023-03-15T00:27:52;99471.84;;;-0.14;100.00
31681;BME280;18281;51.364;9.566;2023-03-15T00:30:17;99466.66;;;-0.13;100.00
31681;BME280;18281;51.364;9.566;2023-03-15T00:32:43;99474.47;;;-0.16;100.00
31681;BME280;18281;51.364;9.566;2023-03-15T00:35:10;99471.97;;;-0.19;100.00
31681;BME280;18281;51.364;9.566;2023-03-15T00:37:37;99474.63;;;-0.23;100.00
31681;BME280;18281;51.364;9.566;2023-03-15T00:40:03;99483.28;;;-0.26;100.00
31681;BME280;18281;51.364;9.566;2023-03-15T00:42:30;99482.41;;;-0.25;100.00
31681;BME280;18281;51.364;9.566;2023-03-15T00:44:55;99476.47;;;-0.28;100.00
31681;BME280;18281;51.364;9.566;2023-03-15T00:47:21;99485.13;;;-0.31;100.00
31681;BME280;18281;51.364;9.566;2023-03-15T00:49:46;99486.84;;;-0.33;100.00
31681;BME280;18281;51.364;9.566;2023-03-15T00:52:12;99494.66;;;-0.36;100.00
31681;BME280;18281;51.364;9.566;2023-03-15T00:54:37;99495.59;;;-0.40;100.00
31681;BME280;18281;51.364;9.566;2023-03-15T00:57:03;99500.78;;;-0.43;100.00
31681;BME280;18281;51.364;9.566;2023-03-15T00:59:30;99489.75;;;-0.49;100.00
31681;BME280;18281;51.364;9.566;2023-03-15T01:02:08;99497.47;;;-0.49;100.00
31681;BME280;18281;51.364;9.566;2023-03-15T01:04:33;99496.66;;;-0.52;100.00
31681;BME280;18281;51.364;9.566;2023-03-15T01:06:59;99490.66;;;-0.53;100.00
31681;BME280;18281;51.364;9.566;2023-03-15T01:09:24;99496.75;;;-0.57;100.00
31681;BME280;18281;51.364;9.566;2023-03-15T01:11:50;99503.63;;;-0.57;100.00
31681;BME280;18281;51.364;9.566;2023-03-15T01:14:15;99501.94;;;-0.58;100.00
31681;BME280;18281;51.364;9.566;2023-03-15T01:16:43;99507.97;;;-0.61;100.00
31681;BME280;18281;51.364;9.566;2023-03-15T01:19:08;99512.38;;;-0.65;100.00
31681;BME280;18281;51.364;9.566;2023-03-15T01:21:33;99511.56;;;-0.68;100.00
31681;BME280;18281;51.364;9.566;2023-03-15T01:23:59;99506.47;;;-0.71;100.00
31681;BME280;18281;51.364;9.566;2023-03-15T01:26:33;99500.47;;;-0.73;100.00
31681;BME280;18281;51.364;9.566;2023-03-15T01:28:59;99495.28;;;-0.72;100.00
31681;BME280;18281;51.364;9.566;2023-03-15T01:31:26;99498.84;;;-0.79;100.00
31681;BME280;18281;51.364;9.566;2023-03-15T01:33:52;99491.16;;;-0.81;100.00
31681;BME280;18281;51.364;9.566;2023-03-15T01:36:21;99498.91;;;-0.82;100.00
31681;BME280;18281;51.364;9.566;2023-03-15T01:38:46;99501.50;;;-0.82;100.00
31681;BME280;18281;51.364;9.566;2023-03-15T01:41:14;99501.56;;;-0.87;100.00
31681;BME280;18281;51.364;9.566;2023-03-15T01:43:40;99499.84;;;-0.88;100.00
31681;BME280;18281;51.364;9.566;2023-03-15T01:46:30;99498.97;;;-0.87;100.00
31681;BME280;18281;51.364;9.566;2023-03-15T01:49:10;99504.22;;;-0.91;100.00
31681;BME280;18281;51.364;9.566;2023-03-15T01:54:33;99513.56;;;-0.86;100.00
31681;BME280;18281;51.364;9.566;2023-03-15T01:57:05;99512.63;;;-0.82;100.00
31681;BME280;18281;51.364;9.566;2023-03-15T01:59:36;99509.16;;;-0.79;100.00
31681;BME280;18281;51.364;9.566;2023-03-15T02:02:03;99510.00;;;-0.78;100.00
31681;BME280;18281;51.364;9.566;2023-03-15T02:04:39;99514.22;;;-0.74;100.00
31681;BME280;18281;51.364;9.566;2023-03-15T02:07:14;99508.22;;;-0.75;100.00
31681;BME280;18281;51.364;9.566;2023-03-15T02:10:04;99511.63;;;-0.71;100.00
31681;BME280;18281;51.364;9.566;2023-03-15T02:12:32;99527.94;;;-0.71;100.00
31681;BME280;18281;51.364;9.566;2023-03-15T02:15:00;99531.34;;;-0.69;100.00
31681;BME280;18281;51.364;9.566;2023-03-15T02:17:37;99526.13;;;-0.66;100.00
31681;BME280;18281;51.364;9.566;2023-03-15T02:22:57;99524.44;;;-0.68;100.00
31681;BME280;18281;51.364;9.566;2023-03-15T02:28:06;99531.25;;;-0.64;100.00
31681;BME280;18281;51.364;9.566;2023-03-15T02:30:33;99532.13;;;-0.65;100.00
31681;BME280;18281;51.364;9.566;2023-03-15T02:33:00;99526.94;;;-0.62;100.00
31681;BME280;18281;51.364;9.566;2023-03-15T02:35:30;99534.47;;;-0.53;100.00
31681;BME280;18281;51.364;9.566;2023-03-15T02:37:56;99525.09;;;-0.57;100.00
31681;BME280;18281;51.364;9.566;2023-03-15T02:40:24;99536.16;;;-0.50;100.00
31681;BME280;18281;51.364;9.566;2023-03-15T02:42:54;99527.47;;;-0.46;100.00
31681;BME280;18281;51.364;9.566;2023-03-15T02:45:21;99525.78;;;-0.45;100.00
31681;BME280;18281;51.364;9.566;2023-03-15T02:47:48;99530.78;;;-0.36;100.00
31681;BME280;18281;51.364;9.566;2023-03-15T02:50:14;99536.94;;;-0.45;100.00
31681;BME280;18281;51.364;9.566;2023-03-15T02:52:40;99527.31;;;-0.35;100.00
31681;BME280;18281;51.364;9.566;2023-03-15T02:55:06;99528.91;;;-0.28;100.00
31681;BME280;18281;51.364;9.566;2023-03-15T02:57:31;99534.09;;;-0.30;100.00
31681;BME280;18281;51.364;9.566;2023-03-15T02:59:57;99543.56;;;-0.32;100.00
31681;BME280;18281;51.364;9.566;2023-03-15T03:02:23;99540.03;;;-0.24;100.00
31681;BME280;18281;51.364;9.566;2023-03-15T03:04:49;99546.88;;;-0.25;100.00
31681;BME280;18281;51.364;9.566;2023-03-15T03:07:14;99554.00;;;-0.38;100.00
31681;BME280;18281;51.364;9.566;2023-03-15T03:09:40;99557.53;;;-0.43;100.00
31681;BME280;18281;51.364;9.566;2023-03-15T03:12:05;99559.25;;;-0.42;100.00
31681;BME280;18281;51.364;9.566;2023-03-15T03:14:31;99564.69;;;-0.58;100.00
31681;BME280;18281;51.364;9.566;2023-03-15T03:16:56;99574.00;;;-0.51;100.00
31681;BME280;18281;51.364;9.566;2023-03-15T03:19:21;99566.03;;;-0.38;100.00
31681;BME280;18281;51.364;9.566;2023-03-15T03:21:53;99572.00;;;-0.35;100.00
31681;BME280;18281;51.364;9.566;2023-03-15T03:24:19;99569.31;;;-0.27;100.00
31681;BME280;18281;51.364;9.566;2023-03-15T03:26:44;99570.13;;;-0.26;100.00
31681;BME280;18281;51.364;9.566;2023-03-15T03:29:10;99569.34;;;-0.30;100.00
31681;BME280;18281;51.364;9.566;2023-03-15T03:31:36;99573.59;;;-0.27;100.00
31681;BME280;18281;51.364;9.566;2023-03-15T03:34:01;99576.16;;;-0.27;100.00
31681;BME280;18281;51.364;9.566;2023-03-15T03:36:27;99570.81;;;-0.17;100.00
31681;BME280;18281;51.364;9.566;2023-03-15T03:38:52;99564.16;;;-0.30;100.00
31681;BME280;18281;51.364;9.566;2023-03-15T03:41:18;99582.91;;;-0.19;100.00
31681;BME280;18281;51.364;9.566;2023-03-15T03:43:44;99579.66;;;-0.28;100.00
31681;BME280;18281;51.364;9.566;2023-03-15T03:46:10;99591.69;;;-0.29;100.00
31681;BME280;18281;51.364;9.566;2023-03-15T03:48:35;99589.84;;;-0.22;100.00
31681;BME280;18281;51.364;9.566;2023-03-15T03:51:00;99588.97;;;-0.21;100.00
31681;BME280;18281;51.364;9.566;2023-03-15T03:53:26;99589.81;;;-0.21;100.00
31681;BME280;18281;51.364;9.566;2023-03-15T03:55:51;99596.78;;;-0.26;100.00
31681;BME280;18281;51.364;9.566;2023-03-15T03:58:19;99594.22;;;-0.27;100.00
31681;BME280;18281;51.364;9.566;2023-03-15T04:00:44;99597.72;;;-0.30;100.00
31681;BME280;18281;51.364;9.566;2023-03-15T04:03:10;99605.28;;;-0.21;100.00
31681;BME280;18281;51.364;9.566;2023-03-15T04:05:35;99601.91;;;-0.23;100.00
31681;BME280;18281;51.364;9.566;2023-03-15T04:08:01;99606.94;;;-0.17;100.00
31681;BME280;18281;51.364;9.566;2023-03-15T04:10:26;99607.81;;;-0.16;100.00
31681;BME280;18281;51.364;9.566;2023-03-15T04:12:52;99611.91;;;-0.04;100.00
31681;BME280;18281;51.364;9.566;2023-03-15T04:15:18;99615.50;;;-0.15;100.00
31681;BME280;18281;51.364;9.566;2023-03-15T04:17:47;99620.66;;;-0.15;100.00
31681;BME280;18281;51.364;9.566;2023-03-15T04:20:12;99624.88;;;-0.09;100.00
31681;BME280;18281;51.364;9.566;2023-03-15T04:22:38;99633.75;;;-0.25;100.00
31681;BME280;18281;51.364;9.566;2023-03-15T04:25:04;99640.38;;;-0.10;100.00
31681;BME280;18281;51.364;9.566;2023-03-15T04:27:29;99643.06;;;-0.17;100.00
31681;BME280;18281;51.364;9.566;2023-03-15T04:29:55;99639.44;;;-0.06;100.00
31681;BME280;18281;51.364;9.566;2023-03-15T04:32:21;99640.22;;;-0.01;100.00
31681;BME280;18281;51.364;9.566;2023-03-15T04:34:46;99642.91;;;-0.07;100.00
31681;BME280;18281;51.364;9.566;2023-03-15T04:37:18;99643.84;;;-0.11;100.00
31681;BME280;18281;51.364;9.566;2023-03-15T04:39:44;99645.56;;;-0.12;100.00
31681;BME280;18281;51.364;9.566;2023-03-15T04:42:09;99647.22;;;-0.08;100.00
31681;BME280;18281;51.364;9.566;2023-03-15T04:44:35;99644.75;;;-0.16;100.00
31681;BME280;18281;51.364;9.566;2023-03-15T04:47:00;99645.63;;;-0.17;100.00
31681;BME280;18281;51.364;9.566;2023-03-15T04:49:26;99651.19;;;-0.40;100.00
31681;BME280;18281;51.364;9.566;2023-03-15T04:51:51;99646.88;;;-0.39;100.00
31681;BME280;18281;51.364;9.566;2023-03-15T04:54:17;99648.56;;;-0.38;100.00
31681;BME280;18281;51.364;9.566;2023-03-15T04:56:42;99657.94;;;-0.33;100.00
31681;BME280;18281;51.364;9.566;2023-03-15T04:59:08;99662.16;;;-0.27;100.00
31681;BME280;18281;51.364;9.566;2023-03-15T05:01:34;99654.41;;;-0.25;100.00
31681;BME280;18281;51.364;9.566;2023-03-15T05:04:00;99662.00;;;-0.18;100.00
31681;BME280;18281;51.364;9.566;2023-03-15T05:06:25;99661.06;;;-0.12;100.00
31681;BME280;18281;51.364;9.566;2023-03-15T05:08:51;99672.16;;;-0.07;100.00
31681;BME280;18281;51.364;9.566;2023-03-15T05:11:16;99679.97;;;-0.11;100.00
31681;BME280;18281;51.364;9.566;2023-03-15T05:13:42;99675.63;;;-0.09;100.00
31681;BME280;18281;51.364;9.566;2023-03-15T05:16:07;99692.78;;;-0.05;100.00
31681;BME280;18281;51.364;9.566;2023-03-15T05:18:32;99692.81;;;-0.08;100.00
31681;BME280;18281;51.364;9.566;2023-03-15T05:20:58;99696.19;;;-0.05;100.00
31681;BME280;18281;51.364;9.566;2023-03-15T05:23:24;99700.47;;;-0.04;100.00
31681;BME280;18281;51.364;9.566;2023-03-15T05:25:54;99703.09;;;-0.05;100.00
31681;BME280;18281;51.364;9.566;2023-03-15T05:28:24;99706.47;;;-0.03;100.00
31681;BME280;18281;51.364;9.566;2023-03-15T05:30:50;99715.00;;;0.02;100.00
31681;BME280;18281;51.364;9.566;2023-03-15T05:33:16;99715.06;;;-0.01;100.00
31681;BME280;18281;51.364;9.566;2023-03-15T05:35:42;99719.44;;;-0.06;100.00
31681;BME280;18281;51.364;9.566;2023-03-15T05:38:14;99721.25;;;-0.11;100.00
31681;BME280;18281;51.364;9.566;2023-03-15T05:40:43;99724.69;;;-0.13;100.00
31681;BME280;18281;51.364;9.566;2023-03-15T05:43:09;99730.78;;;-0.17;100.00
31681;BME280;18281;51.364;9.566;2023-03-15T05:45:35;99730.75;;;-0.14;100.00
31681;BME280;18281;51.364;9.566;2023-03-15T05:48:00;99734.25;;;-0.18;100.00
31681;BME280;18281;51.364;9.566;2023-03-15T05:50:25;99738.56;;;-0.20;100.00
31681;BME280;18281;51.364;9.566;2023-03-15T05:52:52;99738.59;;;-0.21;100.00
31681;BME280;18281;51.364;9.566;2023-03-15T05:55:18;99746.47;;;-0.31;100.00
31681;BME280;18281;51.364;9.566;2023-03-15T05:57:45;99755.13;;;-0.33;100.00
31681;BME280;18281;51.364;9.566;2023-03-15T06:00:10;99751.72;;;-0.37;100.00
31681;BME280;18281;51.364;9.566;2023-03-15T06:02:39;99762.94;;;-0.38;100.00
31681;BME280;18281;51.364;9.566;2023-03-15T06:05:05;99761.25;;;-0.40;100.00
31681;BME280;18281;51.364;9.566;2023-03-15T06:07:30;99761.25;;;-0.40;100.00
31681;BME280;18281;51.364;9.566;2023-03-15T06:09:56;99763.84;;;-0.42;100.00
31681;BME280;18281;51.364;9.566;2023-03-15T06:12:21;99771.59;;;-0.43;100.00
31681;BME280;18281;51.364;9.566;2023-03-15T06:14:46;99775.88;;;-0.42;100.00
31681;BME280;18281;51.364;9.566;2023-03-15T06:17:12;99772.50;;;-0.44;100.00
31681;BME280;18281;51.364;9.566;2023-03-15T06:19:37;99779.19;;;0.25;100.00
31681;BME280;18281;51.364;9.566;2023-03-15T06:22:03;99783.06;;;1.40;100.00
31681;BME280;18281;51.364;9.566;2023-03-15T06:24:28;99794.09;;;1.87;100.00
31681;BME280;18281;51.364;9.566;2023-03-15T06:26:54;99788.78;;;1.54;100.00
31681;BME280;18281;51.364;9.566;2023-03-15T06:29:20;99790.88;;;1.37;100.00
31681;BME280;18281;51.364;9.566;2023-03-15T06:31:46;99798.28;;;1.12;100.00
31681;BME280;18281;51.364;9.566;2023-03-15T06:34:14;99784.16;;;0.84;100.00
31681;BME280;18281;51.364;9.566;2023-03-15T06:36:39;99793.28;;;0.56;100.00
31681;BME280;18281;51.364;9.566;2023-03-15T06:39:07;99804.03;;;0.31;100.00
31681;BME280;18281;51.364;9.566;2023-03-15T06:41:32;99803.50;;;0.09;100.00
31681;BME280;18281;51.364;9.566;2023-03-15T06:43:57;99802.72;;;0.05;100.00
31681;BME280;18281;51.364;9.566;2023-03-15T06:46:23;99808.75;;;0.04;100.00
31681;BME280;18281;51.364;9.566;2023-03-15T06:48:48;99813.06;;;0.02;100.00
31681;BME280;18281;51.364;9.566;2023-03-15T06:51:14;99815.03;;;-0.14;100.00
31681;BME280;18281;51.364;9.566;2023-03-15T06:53:39;99824.50;;;-0.13;100.00
31681;BME280;18281;51.364;9.566;2023-03-15T06:56:04;99827.91;;;-0.11;100.00
31681;BME280;18281;51.364;9.566;2023-03-15T06:58:30;99834.72;;;-0.07;100.00
31681;BME280;18281;51.364;9.566;2023-03-15T07:00:55;99839.00;;;-0.04;100.00
31681;BME280;18281;51.364;9.566;2023-03-15T07:03:21;99842.44;;;-0.05;100.00
31681;BME280;18281;51.364;9.566;2023-03-15T07:05:48;99857.19;;;-0.14;100.00
31681;BME280;18281;51.364;9.566;2023-03-15T07:08:17;99862.38;;;-0.17;100.00
31681;BME280;18281;51.364;9.566;2023-03-15T07:10:42;99861.56;;;-0.19;100.00
31681;BME280;18281;51.364;9.566;2023-03-15T07:13:07;99871.00;;;-0.19;100.00
31681;BME280;18281;51.364;9.566;2023-03-15T07:15:35;99883.94;;;-0.21;100.00
31681;BME280;18281;51.364;9.566;2023-03-15T07:18:01;99886.56;;;-0.24;100.00
31681;BME280;18281;51.364;9.566;2023-03-15T07:20:26;99887.44;;;-0.25;100.00
31681;BME280;18281;51.364;9.566;2023-03-15T07:22:51;99889.22;;;-0.30;100.00
31681;BME280;18281;51.364;9.566;2023-03-15T07:25:17;99888.38;;;-0.32;100.00
31681;BME280;18281;51.364;9.566;2023-03-15T07:27:51;99882.38;;;-0.31;100.00
31681;BME280;18281;51.364;9.566;2023-03-15T07:30:18;99884.03;;;-0.30;100.00
31681;BME280;18281;51.364;9.566;2023-03-15T07:32:44;99884.09;;;-0.33;100.00
31681;BME280;18281;51.364;9.566;2023-03-15T07:35:09;99879.75;;;-0.30;100.00
31681;BME280;18281;51.364;9.566;2023-03-15T07:37:35;99892.63;;;-0.28;100.00
31681;BME280;18281;51.364;9.566;2023-03-15T07:40:00;99888.28;;;-0.24;100.00
31681;BME280;18281;51.364;9.566;2023-03-15T07:42:39;99897.72;;;-0.22;100.00
31681;BME280;18281;51.364;9.566;2023-03-15T07:45:05;99901.19;;;-0.23;100.00
31681;BME280;18281;51.364;9.566;2023-03-15T07:47:31;99901.97;;;-0.19;100.00
31681;BME280;18281;51.364;9.566;2023-03-15T07:49:57;99903.38;;;0.07;100.00
31681;BME280;18281;51.364;9.566;2023-03-15T07:52:23;99910.47;;;1.04;100.00
31681;BME280;18281;51.364;9.566;2023-03-15T07:54:49;99910.53;;;1.47;100.00
31681;BME280;18281;51.364;9.566;2023-03-15T07:57:14;99922.94;;;1.29;100.00
31681;BME280;18281;51.364;9.566;2023-03-15T07:59:40;99914.50;;;1.19;100.00
31681;BME280;18281;51.364;9.566;2023-03-15T08:02:06;99909.59;;;1.04;100.00
31681;BME280;18281;51.364;9.566;2023-03-15T08:04:31;99911.22;;;1.11;100.00
31681;BME280;18281;51.364;9.566;2023-03-15T08:06:57;99915.38;;;1.18;100.00
31681;BME280;18281;51.364;9.566;2023-03-15T08:09:22;99909.31;;;1.21;100.00
31681;BME280;18281;51.364;9.566;2023-03-15T08:11:48;99908.72;;;1.05;100.00
31681;BME280;18281;51.364;9.566;2023-03-15T08:14:13;99912.22;;;1.02;100.00
31681;BME280;18281;51.364;9.566;2023-03-15T08:16:38;99920.84;;;1.03;100.00
31681;BME280;18281;51.364;9.566;2023-03-15T08:19:04;99922.66;;;0.98;100.00
31681;BME280;18281;51.364;9.566;2023-03-15T08:21:29;99922.69;;;0.93;100.00
31681;BME280;18281;51.364;9.566;2023-03-15T08:23:58;99928.81;;;0.87;100.00
31681;BME280;18281;51.364;9.566;2023-03-15T08:26:24;99933.13;;;0.88;100.00
31681;BME280;18281;51.364;9.566;2023-03-15T08:28:50;99945.31;;;0.80;100.00
31681;BME280;18281;51.364;9.566;2023-03-15T08:31:16;99943.66;;;0.76;100.00
31681;BME280;18281;51.364;9.566;2023-03-15T08:33:41;99946.25;;;0.76;100.00
31681;BME280;18281;51.364;9.566;2023-03-15T08:36:07;99959.34;;;0.65;100.00
31681;BME280;18281;51.364;9.566;2023-03-15T08:38:32;99967.94;;;0.66;100.00
31681;BME280;18281;51.364;9.566;2023-03-15T08:40:58;99961.97;;;0.61;100.00
31681;BME280;18281;51.364;9.566;2023-03-15T08:43:24;99973.19;;;0.58;100.00
31681;BME280;18281;51.364;9.566;2023-03-15T08:45:50;99975.75;;;0.60;100.00
31681;BME280;18281;51.364;9.566;2023-03-15T08:48:16;99980.09;;;0.59;100.00
31681;BME280;18281;51.364;9.566;2023-03-15T08:50:42;99989.56;;;0.60;100.00
31681;BME280;18281;51.364;9.566;2023-03-15T08:53:08;99993.06;;;0.56;100.00
31681;BME280;18281;51.364;9.566;2023-03-15T08:55:35;99993.94;;;0.53;100.00
31681;BME280;18281;51.364;9.566;2023-03-15T08:58:02;99990.41;;;0.59;100.00
31681;BME280;18281;51.364;9.566;2023-03-15T09:00:28;100000.84;;;0.54;100.00
31681;BME280;18281;51.364;9.566;2023-03-15T09:02:54;100004.22;;;0.57;100.00
31681;BME280;18281;51.364;9.566;2023-03-15T09:05:21;100005.97;;;0.56;100.00
31681;BME280;18281;51.364;9.566;2023-03-15T09:07:47;100015.41;;;0.59;100.00
31681;BME280;18281;51.364;9.566;2023-03-15T09:10:15;100011.94;;;0.60;100.00
31681;BME280;18281;51.364;9.566;2023-03-15T09:12:42;100027.41;;;0.63;100.00
31681;BME280;18281;51.364;9.566;2023-03-15T09:15:09;100020.44;;;0.68;100.00
31681;BME280;18281;51.364;9.566;2023-03-15T09:17:36;100024.72;;;0.69;100.00
31681;BME280;18281;51.364;9.566;2023-03-15T09:20:03;100035.97;;;0.68;100.00
31681;BME280;18281;51.364;9.566;2023-03-15T09:22:32;100026.31;;;0.79;100.00
31681;BME280;18281;51.364;9.566;2023-03-15T09:24:57;100022.59;;;0.99;100.00
31681;BME280;18281;51.364;9.566;2023-03-15T09:27:22;100023.84;;;1.28;100.00
31681;BME280;18281;51.364;9.566;2023-03-15T09:29:48;100022.19;;;1.24;100.00
31681;BME280;18281;51.364;9.566;2023-03-15T09:32:13;100026.56;;;1.22;100.00
31681;BME280;18281;51.364;9.566;2023-03-15T09:34:39;100032.44;;;1.30;100.00
31681;BME280;18281;51.364;9.566;2023-03-15T09:37:04;100019.81;;;1.61;100.00
31681;BME280;18281;51.364;9.566;2023-03-15T09:39:30;100023.63;;;1.88;100.00
31681;BME280;18281;51.364;9.566;2023-03-15T09:41:59;100027.72;;;1.99;100.00
31681;BME280;18281;51.364;9.566;2023-03-15T09:44:34;100033.63;;;2.05;100.00
31681;BME280;18281;51.364;9.566;2023-03-15T09:49:54;100043.69;;;2.21;100.00
31681;BME280;18281;51.364;9.566;2023-03-15T09:52:33;100056.16;;;2.02;100.00
31681;BME280;18281;51.364;9.566;2023-03-15T09:55:04;100050.00;;;2.08;100.00
31681;BME280;18281;51.364;9.566;2023-03-15T09:57:39;100057.09;;;1.98;100.00
31681;BME280;18281;51.364;9.566;2023-03-15T10:00:12;100053.53;;;2.03;100.00
31681;BME280;18281;51.364;9.566;2023-03-15T10:02:43;100057.88;;;2.01;100.00
31681;BME280;18281;51.364;9.566;2023-03-15T10:05:17;100062.34;;;1.95;100.00
31681;BME280;18281;51.364;9.566;2023-03-15T10:07:44;100066.75;;;1.90;100.00
31681;BME280;18281;51.364;9.566;2023-03-15T10:10:25;100060.59;;;1.97;100.00
31681;BME280;18281;51.364;9.566;2023-03-15T10:13:23;100069.97;;;2.02;100.00
31681;BME280;18281;51.364;9.566;2023-03-15T10:16:00;100070.75;;;2.06;100.00
31681;BME280;18281;51.364;9.566;2023-03-15T10:21:31;100067.16;;;2.13;100.00
31681;BME280;18281;51.364;9.566;2023-03-15T10:24:02;100066.75;;;2.33;100.00
31681;BME280;18281;51.364;9.566;2023-03-15T10:26:32;100070.50;;;2.61;100.00
31681;BME280;18281;51.364;9.566;2023-03-15T10:29:02;100060.88;;;2.66;100.00
31681;BME280;18281;51.364;9.566;2023-03-15T10:31:34;100063.69;;;2.96;100.00
31681;BME280;18281;51.364;9.566;2023-03-15T10:34:01;100071.97;;;3.10;100.00
31681;BME280;18281;51.364;9.566;2023-03-15T10:36:27;100066.41;;;3.27;100.00
31681;BME280;18281;51.364;9.566;2023-03-15T10:38:52;100069.91;;;3.25;100.00
31681;BME280;18281;51.364;9.566;2023-03-15T10:41:36;100077.16;;;3.12;100.00
31681;BME280;18281;51.364;9.566;2023-03-15T10:44:06;100079.28;;;2.94;100.00
31681;BME280;18281;51.364;9.566;2023-03-15T10:46:34;100088.19;;;2.82;100.00
31681;BME280;18281;51.364;9.566;2023-03-15T10:49:09;100083.09;;;2.78;100.00
31681;BME280;18281;51.364;9.566;2023-03-15T10:51:44;100081.84;;;2.96;100.00
31681;BME280;18281;51.364;9.566;2023-03-15T10:54:16;100092.69;;;3.13;100.00
31681;BME280;18281;51.364;9.566;2023-03-15T10:56:48;100077.53;;;3.32;100.00
31681;BME280;18281;51.364;9.566;2023-03-15T10:59:23;100071.72;;;3.59;100.00
31681;BME280;18281;51.364;9.566;2023-03-15T11:01:54;100077.06;;;3.52;100.00
31681;BME280;18281;51.364;9.566;2023-03-15T11:04:31;100068.13;;;3.64;100.00
31681;BME280;18281;51.364;9.566;2023-03-15T11:09:23;100081.19;;;3.94;100.00
31681;BME280;18281;51.364;9.566;2023-03-15T11:12:05;100081.19;;;3.94;100.00
31681;BME280;18281;51.364;9.566;2023-03-15T11:14:37;100081.72;;;4.07;100.00
31681;BME280;18281;51.364;9.566;2023-03-15T11:17:05;100082.19;;;4.20;97.66
31681;BME280;18281;51.364;9.566;2023-03-15T11:19:35;100077.47;;;4.34;99.69
31681;BME280;18281;51.364;9.566;2023-03-15T11:22:03;100090.13;;;4.15;100.00
31681;BME280;18281;51.364;9.566;2023-03-15T11:24:31;100094.06;;;4.60;100.00
31681;BME280;18281;51.364;9.566;2023-03-15T11:26:59;100089.13;;;5.09;100.00
31681;BME280;18281;51.364;9.566;2023-03-15T11:29:33;100085.56;;;5.40;100.00
31681;BME280;18281;51.364;9.566;2023-03-15T11:32:02;100096.03;;;5.65;100.00
31681;BME280;18281;51.364;9.566;2023-03-15T11:34:39;100092.78;;;5.59;100.00
31681;BME280;18281;51.364;9.566;2023-03-15T11:40:35;100095.78;;;5.46;94.76
31681;BME280;18281;51.364;9.566;2023-03-15T11:43:09;100094.97;;;5.16;95.12
31681;BME280;18281;51.364;9.566;2023-03-15T11:45:42;100106.84;;;4.96;91.39
31681;BME280;18281;51.364;9.566;2023-03-15T11:48:20;100106.47;;;4.80;89.72
31681;BME280;18281;51.364;9.566;2023-03-15T11:50:52;100108.34;;;5.05;92.75
31681;BME280;18281;51.364;9.566;2023-03-15T11:53:18;100105.63;;;5.08;90.73
31681;BME280;18281;51.364;9.566;2023-03-15T11:55:50;100107.13;;;4.87;88.63
31681;BME280;18281;51.364;9.566;2023-03-15T11:58:34;100110.44;;;4.92;89.64
31681;BME280;18281;51.364;9.566;2023-03-15T12:01:09;100111.25;;;5.22;90.33
31681;BME280;18281;51.364;9.566;2023-03-15T12:06:02;100108.59;;;5.52;90.89
31681;BME280;18281;51.364;9.566;2023-03-15T12:11:00;100109.88;;;5.66;88.48
31681;BME280;18281;51.364;9.566;2023-03-15T12:33:44;100121.41;;;5.59;84.24
31681;BME280;18281;51.364;9.566;2023-03-15T13:24:18;100117.22;;;7.23;100.00
31681;BME280;18281;51.364;9.566;2023-03-15T13:26:54;100109.94;;;7.10;100.00
31681;BME280;18281;51.364;9.566;2023-03-15T13:29:28;100123.16;;;7.05;100.00
31681;BME280;18281;51.364;9.566;2023-03-15T13:32:15;100120.41;;;7.08;100.00
31681;BME280;18281;51.364;9.566;2023-03-15T13:34:43;100119.53;;;6.85;89.19
31681;BME280;18281;51.364;9.566;2023-03-15T13:37:30;100117.50;;;6.70;76.68
31681;BME280;18281;51.364;9.566;2023-03-15T13:40:11;100126.28;;;6.44;76.61
31681;BME280;18281;51.364;9.566;2023-03-15T13:42:39;100124.56;;;6.44;83.47
31681;BME280;18281;51.364;9.566;2023-03-15T13:47:33;100123.28;;;6.54;78.22
31681;BME280;18281;51.364;9.566;2023-03-15T13:50:02;100115.19;;;6.62;77.28
31681;BME280;18281;51.364;9.566;2023-03-15T13:52:28;100126.81;;;6.53;70.25
31681;BME280;18281;51.364;9.566;2023-03-15T13:54:54;100120.97;;;6.47;71.65
31681;BME280;18281;51.364;9.566;2023-03-15T13:57:20;100127.03;;;6.47;76.62
31681;BME280;18281;51.364;9.566;2023-03-15T13:59:50;100120.91;;;6.48;71.83
31681;BME280;18281;51.364;9.566;2023-03-15T14:02:27;100124.81;;;6.36;75.08
31681;BME280;18281;51.364;9.566;2023-03-15T14:05:00;100137.22;;;6.30;73.37
31681;BME280;18281;51.364;9.566;2023-03-15T14:07:36;100129.03;;;6.15;74.83
31681;BME280;18281;51.364;9.566;2023-03-15T14:10:30;100125.84;;;6.07;70.21
31681;BME280;18281;51.364;9.566;2023-03-15T14:12:55;100141.66;;;6.02;74.10
31681;BME280;18281;51.364;9.566;2023-03-15T14:20:39;100139.09;;;5.76;71.06
31681;BME280;18281;51.364;9.566;2023-03-15T14:23:08;100139.22;;;5.71;72.63
31681;BME280;18281;51.364;9.566;2023-03-15T14:25:35;100150.47;;;5.73;71.60
31681;BME280;18281;51.364;9.566;2023-03-15T14:28:02;100145.91;;;5.80;77.29
31681;BME280;18281;51.364;9.566;2023-03-15T14:30:31;100141.84;;;5.71;69.16
31681;BME280;18281;51.364;9.566;2023-03-15T14:33:01;100132.44;;;5.67;72.43
31681;BME280;18281;51.364;9.566;2023-03-15T14:40:40;100132.91;;;5.51;69.37
31681;BME280;18281;51.364;9.566;2023-03-15T14:43:06;100138.75;;;5.60;75.52